Terminal Aerodrome Forecast
Issued by NWS Tuscon, AZ

Home | Current Version | Previous Version | Text Only | Print | Product List | Glossary On
Versions: 1 2 3 4 5 6 7 8 9 10 11 12 13 14 15
000
FTUS45 KTWC 291725
TAFTUS
TAF
KTUS 291725Z 2918/3018 VRB06KT P6SM FEW080
     FM292200 29008KT P6SM VCSH SCT090 SCT120
     FM300200 20007KT P6SM VCSH SCT120 BKN200
     FM300500 14007KT P6SM SCT120 SCT250
     FM301700 VRB05KT P6SM FEW080 SCT250=

USA.gov is the U.S. government's official web portal to all federal, state and local government web resources and services.